sensor_id;sensor_type;location;lat;lon;timestamp;pressure;altitude;pressure_sealevel;temperature;humidity
28630;BME280;15817;42.130;24.762;2024-03-25T00:01:41;98203.53;;;13.54;90.96
28630;BME280;15817;42.130;24.762;2024-03-25T00:04:07;98196.28;;;13.37;92.20
28630;BME280;15817;42.130;24.762;2024-03-25T00:06:33;98198.63;;;13.45;91.93
28630;BME280;15817;42.130;24.762;2024-03-25T00:09:03;98194.50;;;13.38;91.97
28630;BME280;15817;42.130;24.762;2024-03-25T00:11:33;98188.53;;;13.31;92.51
28630;BME280;15817;42.130;24.762;2024-03-25T00:13:59;98196.66;;;13.28;92.55
28630;BME280;15817;42.130;24.762;2024-03-25T00:16:27;98195.28;;;13.20;92.92
28630;BME280;15817;42.130;24.762;2024-03-25T00:18:53;98190.63;;;13.25;92.81
28630;BME280;15817;42.130;24.762;2024-03-25T00:21:19;98183.19;;;13.31;92.44
28630;BME280;15817;42.130;24.762;2024-03-25T00:23:45;98203.28;;;13.40;92.22
28630;BME280;15817;42.130;24.762;2024-03-25T00:26:11;98178.66;;;13.33;91.92
28630;BME280;15817;42.130;24.762;2024-03-25T00:28:37;98174.06;;;13.37;91.71
28630;BME280;15817;42.130;24.762;2024-03-25T00:31:04;98178.53;;;13.36;91.79
28630;BME280;15817;42.130;24.762;2024-03-25T00:33:30;98161.72;;;13.34;91.30
28630;BME280;15817;42.130;24.762;2024-03-25T00:35:55;98156.78;;;13.25;91.46
28630;BME280;15817;42.130;24.762;2024-03-25T00:38:21;98155.75;;;13.28;91.59
28630;BME280;15817;42.130;24.762;2024-03-25T00:40:47;98151.94;;;13.15;92.12
28630;BME280;15817;42.130;24.762;2024-03-25T00:43:15;98172.41;;;13.14;92.26
28630;BME280;15817;42.130;24.762;2024-03-25T00:45:41;98176.59;;;13.20;92.13
28630;BME280;15817;42.130;24.762;2024-03-25T00:48:07;98166.66;;;13.23;91.55
28630;BME280;15817;42.130;24.762;2024-03-25T00:50:33;98162.78;;;13.30;91.33
28630;BME280;15817;42.130;24.762;2024-03-25T00:52:59;98168.25;;;13.27;91.49
28630;BME280;15817;42.130;24.762;2024-03-25T00:55:28;98193.88;;;13.31;91.49
28630;BME280;15817;42.130;24.762;2024-03-25T00:57:54;98179.38;;;13.17;91.70
28630;BME280;15817;42.130;24.762;2024-03-25T01:00:20;98173.94;;;13.20;91.70
28630;BME280;15817;42.130;24.762;2024-03-25T01:02:46;98186.28;;;13.22;91.80
28630;BME280;15817;42.130;24.762;2024-03-25T01:05:12;98181.28;;;13.15;91.69
28630;BME280;15817;42.130;24.762;2024-03-25T01:07:38;98207.31;;;13.08;91.86
28630;BME280;15817;42.130;24.762;2024-03-25T01:10:05;98230.25;;;12.92;93.53
28630;BME280;15817;42.130;24.762;2024-03-25T01:12:32;98264.38;;;12.84;94.73
28630;BME280;15817;42.130;24.762;2024-03-25T01:14:57;98311.41;;;12.86;95.55
28630;BME280;15817;42.130;24.762;2024-03-25T01:17:23;98305.59;;;12.77;97.27
28630;BME280;15817;42.130;24.762;2024-03-25T01:19:49;98332.56;;;12.69;100.00
28630;BME280;15817;42.130;24.762;2024-03-25T01:22:14;98337.81;;;12.70;100.00
28630;BME280;15817;42.130;24.762;2024-03-25T01:24:40;98329.03;;;12.68;100.00
28630;BME280;15817;42.130;24.762;2024-03-25T01:27:06;98317.97;;;12.56;100.00
28630;BME280;15817;42.130;24.762;2024-03-25T01:29:32;98326.44;;;12.44;100.00
28630;BME280;15817;42.130;24.762;2024-03-25T01:31:58;98326.84;;;12.33;100.00
28630;BME280;15817;42.130;24.762;2024-03-25T01:34:25;98342.84;;;12.33;100.00
28630;BME280;15817;42.130;24.762;2024-03-25T01:36:54;98368.78;;;12.28;100.00
28630;BME280;15817;42.130;24.762;2024-03-25T01:39:20;98385.16;;;12.17;100.00
28630;BME280;15817;42.130;24.762;2024-03-25T01:41:46;98395.97;;;12.13;99.92
28630;BME280;15817;42.130;24.762;2024-03-25T01:44:11;98416.69;;;11.80;96.30
28630;BME280;15817;42.130;24.762;2024-03-25T01:46:37;98408.44;;;11.61;98.15
28630;BME280;15817;42.130;24.762;2024-03-25T01:49:04;98421.66;;;11.36;100.00
28630;BME280;15817;42.130;24.762;2024-03-25T01:51:30;98422.03;;;11.25;100.00
28630;BME280;15817;42.130;24.762;2024-03-25T01:53:56;98412.72;;;11.11;100.00
28630;BME280;15817;42.130;24.762;2024-03-25T01:56:24;98428.72;;;11.09;100.00
28630;BME280;15817;42.130;24.762;2024-03-25T01:58:50;98425.91;;;10.86;100.00
28630;BME280;15817;42.130;24.762;2024-03-25T02:01:17;98428.84;;;10.77;100.00
28630;BME280;15817;42.130;24.762;2024-03-25T02:03:44;98444.84;;;10.75;100.00
28630;BME280;15817;42.130;24.762;2024-03-25T02:06:17;98442.34;;;10.71;100.00
28630;BME280;15817;42.130;24.762;2024-03-25T02:08:47;98437.41;;;10.57;100.00
28630;BME280;15817;42.130;24.762;2024-03-25T02:11:13;98434.91;;;10.51;100.00
28630;BME280;15817;42.130;24.762;2024-03-25T02:13:39;98422.16;;;10.33;100.00
28630;BME280;15817;42.130;24.762;2024-03-25T02:16:06;98431.09;;;10.30;100.00
28630;BME280;15817;42.130;24.762;2024-03-25T02:18:32;98428.44;;;10.30;100.00
28630;BME280;15817;42.130;24.762;2024-03-25T02:20:58;98431.97;;;10.31;100.00
28630;BME280;15817;42.130;24.762;2024-03-25T02:23:24;98428.78;;;10.16;100.00
28630;BME280;15817;42.130;24.762;2024-03-25T02:25:51;98419.84;;;10.21;100.00
28630;BME280;15817;42.130;24.762;2024-03-25T02:28:17;98413.69;;;10.19;100.00
28630;BME280;15817;42.130;24.762;2024-03-25T02:30:43;98413.69;;;10.17;100.00
28630;BME280;15817;42.130;24.762;2024-03-25T02:33:09;98404.44;;;10.33;100.00
28630;BME280;15817;42.130;24.762;2024-03-25T02:35:35;98397.94;;;10.43;100.00
28630;BME280;15817;42.130;24.762;2024-03-25T02:38:02;98399.16;;;10.32;100.00
28630;BME280;15817;42.130;24.762;2024-03-25T02:40:29;98401.84;;;10.30;100.00
28630;BME280;15817;42.130;24.762;2024-03-25T02:42:55;98405.63;;;10.23;100.00
28630;BME280;15817;42.130;24.762;2024-03-25T02:45:21;98429.00;;;10.41;100.00
28630;BME280;15817;42.130;24.762;2024-03-25T02:47:47;98419.28;;;10.40;100.00
28630;BME280;15817;42.130;24.762;2024-03-25T02:50:13;98402.69;;;10.32;100.00
28630;BME280;15817;42.130;24.762;2024-03-25T02:52:38;98408.84;;;10.34;100.00
28630;BME280;15817;42.130;24.762;2024-03-25T02:55:04;98414.88;;;10.39;100.00
28630;BME280;15817;42.130;24.762;2024-03-25T02:57:30;98420.25;;;10.38;100.00
28630;BME280;15817;42.130;24.762;2024-03-25T02:59:56;98418.63;;;10.32;100.00
28630;BME280;15817;42.130;24.762;2024-03-25T03:02:22;98436.31;;;10.33;100.00
28630;BME280;15817;42.130;24.762;2024-03-25T03:04:48;98426.84;;;10.25;100.00
28630;BME280;15817;42.130;24.762;2024-03-25T03:07:13;98417.22;;;10.17;100.00
28630;BME280;15817;42.130;24.762;2024-03-25T03:09:39;98418.03;;;10.23;100.00
28630;BME280;15817;42.130;24.762;2024-03-25T03:12:05;98433.22;;;10.16;100.00
28630;BME280;15817;42.130;24.762;2024-03-25T03:14:31;98418.28;;;10.12;100.00
28630;BME280;15817;42.130;24.762;2024-03-25T03:16:56;98417.22;;;10.19;100.00
28630;BME280;15817;42.130;24.762;2024-03-25T03:19:25;98401.56;;;10.08;100.00
28630;BME280;15817;42.130;24.762;2024-03-25T03:21:52;98407.69;;;10.10;100.00
28630;BME280;15817;42.130;24.762;2024-03-25T03:24:18;98389.03;;;10.13;100.00
28630;BME280;15817;42.130;24.762;2024-03-25T03:26:44;98407.44;;;10.21;100.00
28630;BME280;15817;42.130;24.762;2024-03-25T03:29:10;98395.03;;;10.22;100.00
28630;BME280;15817;42.130;24.762;2024-03-25T03:31:36;98398.63;;;10.17;100.00
28630;BME280;15817;42.130;24.762;2024-03-25T03:34:02;98405.00;;;10.12;100.00
28630;BME280;15817;42.130;24.762;2024-03-25T03:36:28;98407.75;;;10.09;100.00
28630;BME280;15817;42.130;24.762;2024-03-25T03:38:53;98404.13;;;10.11;100.00
28630;BME280;15817;42.130;24.762;2024-03-25T03:41:20;98415.94;;;10.01;100.00
28630;BME280;15817;42.130;24.762;2024-03-25T03:43:45;98413.41;;;9.95;100.00
28630;BME280;15817;42.130;24.762;2024-03-25T03:46:11;98432.91;;;9.94;100.00
28630;BME280;15817;42.130;24.762;2024-03-25T03:48:37;98417.28;;;9.84;100.00
28630;BME280;15817;42.130;24.762;2024-03-25T03:51:07;98438.66;;;9.79;100.00
28630;BME280;15817;42.130;24.762;2024-03-25T03:53:34;98438.47;;;9.85;100.00
28630;BME280;15817;42.130;24.762;2024-03-25T03:56:04;98433.34;;;9.79;100.00
28630;BME280;15817;42.130;24.762;2024-03-25T03:58:33;98431.25;;;9.92;100.00
28630;BME280;15817;42.130;24.762;2024-03-25T04:00:59;98442.94;;;9.83;100.00
28630;BME280;15817;42.130;24.762;2024-03-25T04:03:25;98448.41;;;9.78;100.00
28630;BME280;15817;42.130;24.762;2024-03-25T04:05:51;98456.66;;;9.66;100.00
28630;BME280;15817;42.130;24.762;2024-03-25T04:08:16;98466.34;;;9.69;100.00
28630;BME280;15817;42.130;24.762;2024-03-25T04:10:44;98462.97;;;9.62;100.00
28630;BME280;15817;42.130;24.762;2024-03-25T04:13:09;98478.88;;;9.62;100.00
28630;BME280;15817;42.130;24.762;2024-03-25T04:15:39;98485.03;;;9.64;100.00
28630;BME280;15817;42.130;24.762;2024-03-25T04:18:05;98484.44;;;9.52;100.00
28630;BME280;15817;42.130;24.762;2024-03-25T04:20:41;98476.69;;;9.44;100.00
28630;BME280;15817;42.130;24.762;2024-03-25T04:23:07;98498.69;;;9.48;100.00
28630;BME280;15817;42.130;24.762;2024-03-25T04:25:34;98501.44;;;9.44;100.00
28630;BME280;15817;42.130;24.762;2024-03-25T04:28:00;98510.97;;;9.53;100.00
28630;BME280;15817;42.130;24.762;2024-03-25T04:30:26;98510.13;;;9.51;100.00
28630;BME280;15817;42.130;24.762;2024-03-25T04:32:52;98506.56;;;9.52;100.00
28630;BME280;15817;42.130;24.762;2024-03-25T04:35:18;98507.63;;;9.45;100.00
28630;BME280;15817;42.130;24.762;2024-03-25T04:37:43;98492.00;;;9.31;100.00
28630;BME280;15817;42.130;24.762;2024-03-25T04:40:10;98492.91;;;9.30;100.00
28630;BME280;15817;42.130;24.762;2024-03-25T04:42:35;98508.00;;;9.28;100.00
28630;BME280;15817;42.130;24.762;2024-03-25T04:45:01;98506.41;;;9.21;100.00
28630;BME280;15817;42.130;24.762;2024-03-25T04:47:27;98496.81;;;9.14;100.00
28630;BME280;15817;42.130;24.762;2024-03-25T04:49:53;98502.06;;;9.17;100.00
28630;BME280;15817;42.130;24.762;2024-03-25T04:52:19;98511.88;;;9.12;100.00
28630;BME280;15817;42.130;24.762;2024-03-25T04:54:49;98515.28;;;9.19;99.77
28630;BME280;15817;42.130;24.762;2024-03-25T04:57:14;98510.00;;;9.17;99.22
28630;BME280;15817;42.130;24.762;2024-03-25T04:59:40;98528.25;;;9.32;99.33
28630;BME280;15817;42.130;24.762;2024-03-25T05:02:06;98520.31;;;9.31;98.44
28630;BME280;15817;42.130;24.762;2024-03-25T05:04:32;98538.88;;;9.32;99.39
28630;BME280;15817;42.130;24.762;2024-03-25T05:06:58;98525.72;;;9.26;97.28
28630;BME280;15817;42.130;24.762;2024-03-25T05:09:23;98539.72;;;9.34;100.00
28630;BME280;15817;42.130;24.762;2024-03-25T05:11:49;98537.13;;;9.31;99.47
28630;BME280;15817;42.130;24.762;2024-03-25T05:14:15;98531.84;;;9.30;99.22
28630;BME280;15817;42.130;24.762;2024-03-25T05:16:41;98543.31;;;9.30;99.38
28630;BME280;15817;42.130;24.762;2024-03-25T05:19:07;98555.53;;;9.37;97.86
28630;BME280;15817;42.130;24.762;2024-03-25T05:21:33;98550.25;;;9.36;97.10
28630;BME280;15817;42.130;24.762;2024-03-25T05:23:59;98558.22;;;9.36;96.41
28630;BME280;15817;42.130;24.762;2024-03-25T05:26:25;98565.22;;;9.40;94.22
28630;BME280;15817;42.130;24.762;2024-03-25T05:28:57;98573.13;;;9.43;93.57
28630;BME280;15817;42.130;24.762;2024-03-25T05:31:23;98575.81;;;9.41;93.50
28630;BME280;15817;42.130;24.762;2024-03-25T05:33:50;98582.66;;;9.52;93.83
28630;BME280;15817;42.130;24.762;2024-03-25T05:36:16;98567.81;;;9.43;94.77
28630;BME280;15817;42.130;24.762;2024-03-25T05:38:41;98564.38;;;9.38;94.16
28630;BME280;15817;42.130;24.762;2024-03-25T05:41:08;98567.78;;;9.44;94.53
28630;BME280;15817;42.130;24.762;2024-03-25T05:43:34;98582.69;;;9.50;93.35
28630;BME280;15817;42.130;24.762;2024-03-25T05:46:00;98563.38;;;9.43;91.52
28630;BME280;15817;42.130;24.762;2024-03-25T05:48:28;98566.91;;;9.44;93.21
28630;BME280;15817;42.130;24.762;2024-03-25T05:51:01;98588.75;;;9.57;92.72
28630;BME280;15817;42.130;24.762;2024-03-25T05:53:27;98586.97;;;9.57;93.26
28630;BME280;15817;42.130;24.762;2024-03-25T05:55:54;98590.41;;;9.61;91.33
28630;BME280;15817;42.130;24.762;2024-03-25T05:58:19;98586.84;;;9.62;92.70
28630;BME280;15817;42.130;24.762;2024-03-25T06:00:48;98605.44;;;9.60;91.16
28630;BME280;15817;42.130;24.762;2024-03-25T06:03:15;98610.69;;;9.63;92.45
28630;BME280;15817;42.130;24.762;2024-03-25T06:05:41;98600.06;;;9.63;90.12
28630;BME280;15817;42.130;24.762;2024-03-25T06:08:07;98620.44;;;9.63;88.44
28630;BME280;15817;42.130;24.762;2024-03-25T06:10:37;98628.31;;;9.67;90.15
28630;BME280;15817;42.130;24.762;2024-03-25T06:13:04;98638.97;;;9.66;88.21
28630;BME280;15817;42.130;24.762;2024-03-25T06:15:30;98632.81;;;9.64;88.07
28630;BME280;15817;42.130;24.762;2024-03-25T06:18:01;98635.66;;;9.55;86.02
28630;BME280;15817;42.130;24.762;2024-03-25T06:20:31;98641.94;;;9.51;87.10
28630;BME280;15817;42.130;24.762;2024-03-25T06:22:57;98640.19;;;9.50;86.39
28630;BME280;15817;42.130;24.762;2024-03-25T06:25:22;98651.66;;;9.52;87.34
28630;BME280;15817;42.130;24.762;2024-03-25T06:27:48;98665.97;;;9.44;86.47
28630;BME280;15817;42.130;24.762;2024-03-25T06:30:13;98665.91;;;9.46;87.09
28630;BME280;15817;42.130;24.762;2024-03-25T06:32:57;98678.28;;;9.47;86.87
28630;BME280;15817;42.130;24.762;2024-03-25T06:35:45;98667.63;;;9.49;86.85
28630;BME280;15817;42.130;24.762;2024-03-25T06:38:11;98678.28;;;9.47;87.41
28630;BME280;15817;42.130;24.762;2024-03-25T06:40:39;98677.47;;;9.43;87.53
28630;BME280;15817;42.130;24.762;2024-03-25T06:43:05;98690.72;;;9.45;87.01
28630;BME280;15817;42.130;24.762;2024-03-25T06:45:31;98702.97;;;9.51;87.01
28630;BME280;15817;42.130;24.762;2024-03-25T06:47:57;98692.41;;;9.48;86.56
28630;BME280;15817;42.130;24.762;2024-03-25T06:50:23;98699.41;;;9.53;87.09
28630;BME280;15817;42.130;24.762;2024-03-25T06:52:49;98701.28;;;9.47;86.56
28630;BME280;15817;42.130;24.762;2024-03-25T06:55:15;98701.28;;;9.47;86.97
28630;BME280;15817;42.130;24.762;2024-03-25T06:57:41;98700.56;;;9.38;86.76
28630;BME280;15817;42.130;24.762;2024-03-25T07:00:07;98704.06;;;9.40;88.20
28630;BME280;15817;42.130;24.762;2024-03-25T07:02:39;98707.56;;;9.42;87.74
28630;BME280;15817;42.130;24.762;2024-03-25T07:05:05;98709.41;;;9.39;87.40
28630;BME280;15817;42.130;24.762;2024-03-25T07:07:31;98722.63;;;9.42;87.33
28630;BME280;15817;42.130;24.762;2024-03-25T07:09:57;98722.56;;;9.45;88.24
28630;BME280;15817;42.130;24.762;2024-03-25T07:12:22;98723.22;;;9.56;87.00
28630;BME280;15817;42.130;24.762;2024-03-25T07:14:48;98728.22;;;9.70;85.95
28630;BME280;15817;42.130;24.762;2024-03-25T07:17:15;98716.13;;;9.98;83.99
28630;BME280;15817;42.130;24.762;2024-03-25T07:19:41;98730.69;;;10.21;82.76
28630;BME280;15817;42.130;24.762;2024-03-25T07:22:06;98734.81;;;10.35;82.34
28630;BME280;15817;42.130;24.762;2024-03-25T07:24:32;98744.13;;;10.51;80.21
28630;BME280;15817;42.130;24.762;2024-03-25T07:26:58;98748.53;;;10.54;79.84
28630;BME280;15817;42.130;24.762;2024-03-25T07:29:23;98755.63;;;10.53;79.88
28630;BME280;15817;42.130;24.762;2024-03-25T07:31:49;98742.88;;;10.68;79.99
28630;BME280;15817;42.130;24.762;2024-03-25T07:34:15;98744.81;;;10.61;78.73
28630;BME280;15817;42.130;24.762;2024-03-25T07:36:40;98737.41;;;10.38;78.79
28630;BME280;15817;42.130;24.762;2024-03-25T07:39:06;98741.72;;;10.42;79.00
28630;BME280;15817;42.130;24.762;2024-03-25T07:41:33;98737.34;;;10.40;78.92
28630;BME280;15817;42.130;24.762;2024-03-25T07:43:58;98738.34;;;10.36;77.81
28630;BME280;15817;42.130;24.762;2024-03-25T07:46:24;98735.97;;;10.61;76.51
28630;BME280;15817;42.130;24.762;2024-03-25T07:48:50;98743.00;;;10.62;77.67
28630;BME280;15817;42.130;24.762;2024-03-25T07:51:17;98750.53;;;10.81;76.82
28630;BME280;15817;42.130;24.762;2024-03-25T07:53:42;98745.66;;;10.97;75.60
28630;BME280;15817;42.130;24.762;2024-03-25T07:56:08;98742.03;;;11.01;73.75
28630;BME280;15817;42.130;24.762;2024-03-25T07:58:34;98754.84;;;11.53;69.98
28630;BME280;15817;42.130;24.762;2024-03-25T08:01:00;98750.13;;;11.94;66.42
28630;BME280;15817;42.130;24.762;2024-03-25T08:03:25;98754.78;;;12.17;65.52
28630;BME280;15817;42.130;24.762;2024-03-25T08:05:51;98749.84;;;12.60;65.32
28630;BME280;15817;42.130;24.762;2024-03-25T08:08:17;98757.41;;;12.74;63.58
28630;BME280;15817;42.130;24.762;2024-03-25T08:10:42;98755.94;;;12.65;62.77
28630;BME280;15817;42.130;24.762;2024-03-25T08:13:08;98751.47;;;12.66;63.74
28630;BME280;15817;42.130;24.762;2024-03-25T08:15:34;98769.31;;;12.64;63.24
28630;BME280;15817;42.130;24.762;2024-03-25T08:17:59;98770.59;;;12.51;63.58
28630;BME280;15817;42.130;24.762;2024-03-25T08:20:25;98777.06;;;12.72;61.93
28630;BME280;15817;42.130;24.762;2024-03-25T08:22:51;98791.19;;;12.75;61.33
28630;BME280;15817;42.130;24.762;2024-03-25T08:25:16;98777.75;;;13.04;62.06
28630;BME280;15817;42.130;24.762;2024-03-25T08:27:42;98773.09;;;13.11;61.93
28630;BME280;15817;42.130;24.762;2024-03-25T08:30:08;98756.38;;;13.04;59.78
28630;BME280;15817;42.130;24.762;2024-03-25T08:32:34;98765.22;;;13.06;59.64
28630;BME280;15817;42.130;24.762;2024-03-25T08:35:00;98764.81;;;12.66;58.68
28630;BME280;15817;42.130;24.762;2024-03-25T08:37:25;98772.88;;;12.35;59.20
28630;BME280;15817;42.130;24.762;2024-03-25T08:39:51;98763.44;;;12.23;59.56
28630;BME280;15817;42.130;24.762;2024-03-25T08:42:17;98769.03;;;12.45;60.23
28630;BME280;15817;42.130;24.762;2024-03-25T08:44:42;98784.56;;;12.87;57.04
28630;BME280;15817;42.130;24.762;2024-03-25T08:47:08;98788.56;;;13.28;56.83
28630;BME280;15817;42.130;24.762;2024-03-25T08:49:33;98804.56;;;13.54;55.31
28630;BME280;15817;42.130;24.762;2024-03-25T08:51:59;98790.31;;;13.78;55.31
28630;BME280;15817;42.130;24.762;2024-03-25T08:54:25;98798.09;;;13.85;53.08
28630;BME280;15817;42.130;24.762;2024-03-25T08:56:50;98794.31;;;13.92;53.05
28630;BME280;15817;42.130;24.762;2024-03-25T08:59:16;98805.19;;;14.10;51.08
28630;BME280;15817;42.130;24.762;2024-03-25T09:01:42;98796.13;;;14.14;51.32
28630;BME280;15817;42.130;24.762;2024-03-25T09:04:08;98801.00;;;14.27;50.80
28630;BME280;15817;42.130;24.762;2024-03-25T09:06:34;98804.69;;;14.47;51.40
28630;BME280;15817;42.130;24.762;2024-03-25T09:09:02;98794.88;;;14.48;49.73
28630;BME280;15817;42.130;24.762;2024-03-25T09:11:46;98794.00;;;14.47;50.32
28630;BME280;15817;42.130;24.762;2024-03-25T09:14:11;98790.69;;;14.41;48.57
28630;BME280;15817;42.130;24.762;2024-03-25T09:16:37;98796.94;;;14.41;49.68
28630;BME280;15817;42.130;24.762;2024-03-25T09:19:03;98806.84;;;14.61;49.59
28630;BME280;15817;42.130;24.762;2024-03-25T09:21:30;98798.06;;;14.58;48.40
28630;BME280;15817;42.130;24.762;2024-03-25T09:23:56;98807.94;;;14.56;48.43
28630;BME280;15817;42.130;24.762;2024-03-25T09:26:23;98808.53;;;14.64;47.62
28630;BME280;15817;42.130;24.762;2024-03-25T09:28:49;98794.66;;;14.76;47.20
28630;BME280;15817;42.130;24.762;2024-03-25T09:31:15;98800.34;;;14.67;46.46
28630;BME280;15817;42.130;24.762;2024-03-25T09:33:41;98804.34;;;14.57;45.98
28630;BME280;15817;42.130;24.762;2024-03-25T09:36:09;98816.88;;;14.31;47.72
28630;BME280;15817;42.130;24.762;2024-03-25T09:38:36;98805.41;;;14.53;47.22
28630;BME280;15817;42.130;24.762;2024-03-25T09:41:02;98807.72;;;14.62;46.45
28630;BME280;15817;42.130;24.762;2024-03-25T09:43:33;98811.81;;;14.70;46.30
28630;BME280;15817;42.130;24.762;2024-03-25T09:46:05;98813.47;;;14.96;46.87
28630;BME280;15817;42.130;24.762;2024-03-25T09:48:36;98803.50;;;15.00;46.61
28630;BME280;15817;42.130;24.762;2024-03-25T09:51:02;98817.63;;;15.03;45.15
28630;BME280;15817;42.130;24.762;2024-03-25T09:53:31;98833.06;;;15.18;44.80
28630;BME280;15817;42.130;24.762;2024-03-25T09:55:57;98824.72;;;15.26;43.50
28630;BME280;15817;42.130;24.762;2024-03-25T09:58:25;98826.09;;;14.93;44.56
28630;BME280;15817;42.130;24.762;2024-03-25T10:00:52;98826.22;;;15.11;45.16
28630;BME280;15817;42.130;24.762;2024-03-25T10:03:17;98825.03;;;15.18;45.30
28630;BME280;15817;42.130;24.762;2024-03-25T10:05:43;98829.09;;;15.07;44.21
28630;BME280;15817;42.130;24.762;2024-03-25T10:08:09;98830.28;;;15.21;44.02
28630;BME280;15817;42.130;24.762;2024-03-25T10:10:35;98833.56;;;15.28;43.26
28630;BME280;15817;42.130;24.762;2024-03-25T10:13:07;98834.63;;;15.24;43.21
28630;BME280;15817;42.130;24.762;2024-03-25T10:15:33;98844.63;;;15.41;43.27
28630;BME280;15817;42.130;24.762;2024-03-25T10:17:59;98839.72;;;15.30;42.99
28630;BME280;15817;42.130;24.762;2024-03-25T10:20:24;98839.53;;;15.35;43.01
28630;BME280;15817;42.130;24.762;2024-03-25T10:22:51;98835.03;;;15.35;42.15
28630;BME280;15817;42.130;24.762;2024-03-25T10:25:27;98841.31;;;15.57;42.31
28630;BME280;15817;42.130;24.762;2024-03-25T10:27:54;98847.00;;;15.48;42.85
28630;BME280;15817;42.130;24.762;2024-03-25T10:30:21;98856.56;;;14.67;43.33
28630;BME280;15817;42.130;24.762;2024-03-25T10:33:03;98845.81;;;14.20;43.83
28630;BME280;15817;42.130;24.762;2024-03-25T10:35:40;98864.63;;;14.65;43.73
28630;BME280;15817;42.130;24.762;2024-03-25T10:38:10;98858.09;;;14.26;44.14
28630;BME280;15817;42.130;24.762;2024-03-25T10:40:39;98847.75;;;14.41;43.42
28630;BME280;15817;42.130;24.762;2024-03-25T10:43:07;98844.66;;;14.52;43.41
28630;BME280;15817;42.130;24.762;2024-03-25T10:45:54;98829.50;;;14.28;44.54
28630;BME280;15817;42.130;24.762;2024-03-25T10:51:44;98830.59;;;14.22;45.05
28630;BME280;15817;42.130;24.762;2024-03-25T10:54:11;98834.88;;;14.51;45.64
28630;BME280;15817;42.130;24.762;2024-03-25T10:56:38;98839.91;;;15.04;42.76
28630;BME280;15817;42.130;24.762;2024-03-25T10:59:05;98843.84;;;14.95;42.53
28630;BME280;15817;42.130;24.762;2024-03-25T11:01:35;98825.59;;;15.05;42.89
28630;BME280;15817;42.130;24.762;2024-03-25T11:04:01;98831.50;;;15.35;42.44
28630;BME280;15817;42.130;24.762;2024-03-25T11:06:27;98823.31;;;15.60;41.97
28630;BME280;15817;42.130;24.762;2024-03-25T11:08:56;98829.88;;;15.31;40.90
28630;BME280;15817;42.130;24.762;2024-03-25T11:11:23;98830.38;;;14.75;40.98
28630;BME280;15817;42.130;24.762;2024-03-25T11:13:49;98849.56;;;14.41;41.75
28630;BME280;15817;42.130;24.762;2024-03-25T11:16:36;98846.75;;;14.19;43.13
28630;BME280;15817;42.130;24.762;2024-03-25T11:19:10;98840.41;;;14.22;43.28
28630;BME280;15817;42.130;24.762;2024-03-25T11:21:37;98855.91;;;14.37;42.20
28630;BME280;15817;42.130;24.762;2024-03-25T11:24:08;98836.66;;;14.27;42.12
28630;BME280;15817;42.130;24.762;2024-03-25T11:26:34;98842.56;;;14.12;42.52
28630;BME280;15817;42.130;24.762;2024-03-25T11:29:03;98853.53;;;14.04;43.29
28630;BME280;15817;42.130;24.762;2024-03-25T11:31:29;98841.44;;;13.94;43.24
28630;BME280;15817;42.130;24.762;2024-03-25T11:34:03;98845.13;;;14.15;42.33
28630;BME280;15817;42.130;24.762;2024-03-25T11:36:30;98840.59;;;14.17;43.81
28630;BME280;15817;42.130;24.762;2024-03-25T11:41:26;98839.31;;;14.04;43.32
28630;BME280;15817;42.130;24.762;2024-03-25T11:43:52;98851.84;;;14.02;42.92
28630;BME280;15817;42.130;24.762;2024-03-25T11:46:19;98850.97;;;14.01;41.67
28630;BME280;15817;42.130;24.762;2024-03-25T11:48:45;98866.53;;;14.15;42.10
28630;BME280;15817;42.130;24.762;2024-03-25T11:51:13;98853.84;;;14.20;42.40
28630;BME280;15817;42.130;24.762;2024-03-25T11:53:38;98862.09;;;14.14;43.15
28630;BME280;15817;42.130;24.762;2024-03-25T11:56:05;98855.81;;;14.15;43.35
28630;BME280;15817;42.130;24.762;2024-03-25T11:58:31;98868.81;;;14.26;42.89
28630;BME280;15817;42.130;24.762;2024-03-25T12:00:56;98858.50;;;14.15;43.24
28630;BME280;15817;42.130;24.762;2024-03-25T12:03:25;98846.88;;;13.91;43.40
28630;BME280;15817;42.130;24.762;2024-03-25T12:05:52;98855.19;;;13.84;43.32
28630;BME280;15817;42.130;24.762;2024-03-25T12:08:17;98863.34;;;13.79;43.30
28630;BME280;15817;42.130;24.762;2024-03-25T12:10:43;98854.63;;;13.74;44.07
28630;BME280;15817;42.130;24.762;2024-03-25T12:13:27;98866.09;;;13.77;44.29
28630;BME280;15817;42.130;24.762;2024-03-25T12:15:53;98868.91;;;14.23;44.65
28630;BME280;15817;42.130;24.762;2024-03-25T12:18:20;98879.72;;;14.44;43.60
28630;BME280;15817;42.130;24.762;2024-03-25T12:20:46;98873.09;;;14.06;43.87
28630;BME280;15817;42.130;24.762;2024-03-25T12:23:12;98872.44;;;13.73;43.46
28630;BME280;15817;42.130;24.762;2024-03-25T12:25:38;98883.47;;;13.64;44.49
28630;BME280;15817;42.130;24.762;2024-03-25T12:28:08;98873.59;;;13.40;42.62
28630;BME280;15817;42.130;24.762;2024-03-25T12:30:51;98873.78;;;13.35;41.67
28630;BME280;15817;42.130;24.762;2024-03-25T12:33:16;98880.81;;;13.38;42.21
28630;BME280;15817;42.130;24.762;2024-03-25T12:35:45;98869.50;;;13.56;42.99
28630;BME280;15817;42.130;24.762;2024-03-25T12:38:42;98873.63;;;13.91;43.13
28630;BME280;15817;42.130;24.762;2024-03-25T12:41:09;98875.38;;;14.17;42.80
28630;BME280;15817;42.130;24.762;2024-03-25T12:43:37;98868.34;;;14.38;43.21
28630;BME280;15817;42.130;24.762;2024-03-25T12:46:07;98877.09;;;14.66;43.39
28630;BME280;15817;42.130;24.762;2024-03-25T12:48:37;98886.59;;;14.75;43.07
28630;BME280;15817;42.130;24.762;2024-03-25T12:51:03;98874.75;;;14.80;44.34
28630;BME280;15817;42.130;24.762;2024-03-25T12:53:29;98878.69;;;14.72;43.00
28630;BME280;15817;42.130;24.762;2024-03-25T12:55:55;98906.00;;;14.80;40.68